createdAt,value
2022-08-11T00:03:48.454Z,9.96
2022-08-11T00:18:48.659Z,9.82
2022-08-11T00:33:48.862Z,9.8
2022-08-11T00:48:49.172Z,9.85
2022-08-11T01:03:49.012Z,11.72
2022-08-11T01:18:49.233Z,9.94
2022-08-11T01:33:48.638Z,10.77
2022-08-11T01:48:48.845Z,10.05
2022-08-11T02:03:49.011Z,10.23
2022-08-11T02:18:49.299Z,9.94
2022-08-11T02:33:48.670Z,9.79
2022-08-11T02:48:48.667Z,10.02
2022-08-11T03:03:49.120Z,10.13
2022-08-11T03:18:48.778Z,10.4
2022-08-11T03:33:49.447Z,11.12
2022-08-11T03:48:48.814Z,10.22
2022-08-11T04:03:48.872Z,10.2
2022-08-11T04:18:48.417Z,10.68
2022-08-11T04:33:48.553Z,11.41
2022-08-11T04:48:49.024Z,11.11
2022-08-11T05:03:48.648Z,11.79
2022-08-11T05:18:49.082Z,12.16
2022-08-11T05:33:48.445Z,12.95
2022-08-11T05:48:48.684Z,13.2
2022-08-11T06:03:57.662Z,12.32
2022-08-11T06:18:48.523Z,12.24
2022-08-11T06:33:49.215Z,12
2022-08-11T06:48:48.874Z,11.86
2022-08-11T07:03:48.622Z,11.6
2022-08-11T07:18:49.169Z,11.41
2022-08-11T07:34:06.166Z,11.1
2022-08-11T07:48:48.925Z,11.28
2022-08-11T08:03:53.921Z,11.58
2022-08-11T08:18:49.062Z,11.67
2022-08-11T08:33:49.013Z,11.18
2022-08-11T08:48:48.733Z,11.77
2022-08-11T09:04:04.481Z,11.89
2022-08-11T09:18:49.162Z,11.82
2022-08-11T09:33:49.061Z,11.68
2022-08-11T09:48:49.169Z,10.42
2022-08-11T10:03:48.755Z,10.84
2022-08-11T10:18:48.694Z,11
2022-08-11T10:33:57.771Z,10.24
2022-08-11T10:48:48.920Z,10.57
2022-08-11T11:03:48.875Z,10.94
2022-08-11T11:19:00.663Z,11.15
2022-08-11T11:33:57.514Z,12.04
2022-08-11T11:48:49.084Z,11.65
2022-08-11T12:03:48.597Z,12.36
2022-08-11T12:18:48.589Z,12.4
2022-08-11T12:33:48.635Z,12.41
2022-08-11T12:49:00.161Z,12.5
2022-08-11T13:03:52.026Z,13.14
2022-08-11T13:18:48.935Z,13.06
2022-08-11T13:33:48.675Z,13.16
2022-08-11T13:48:48.624Z,12.6
2022-08-11T14:04:28.608Z,13.29
2022-08-11T14:18:49.048Z,13.78
2022-08-11T14:33:59.017Z,13.91
2022-08-11T14:48:48.732Z,14.04
2022-08-11T15:04:02.701Z,13.41
2022-08-11T15:18:49.163Z,13.29
2022-08-11T15:33:49.171Z,13.48
2022-08-11T15:48:48.495Z,13.7
2022-08-11T16:03:50.457Z,13.3
2022-08-11T16:18:51.510Z,12.83
2022-08-11T16:33:51.419Z,13.52
2022-08-11T16:48:48.770Z,13.39
2022-08-11T17:03:49.011Z,13.22
2022-08-11T17:18:48.768Z,12.98
2022-08-11T17:33:48.543Z,13.05
2022-08-11T17:48:48.699Z,13.05
2022-08-11T18:03:53.322Z,13.79
2022-08-11T18:18:48.818Z,14.34
2022-08-11T18:34:06.246Z,14.52
2022-08-11T18:48:49.308Z,14.68
2022-08-11T19:03:49.399Z,15.39
2022-08-11T19:18:48.973Z,14.93
2022-08-11T19:34:00.517Z,16.11
2022-08-11T19:48:48.520Z,15.19
2022-08-11T20:03:48.525Z,15.16
2022-08-11T20:18:49.015Z,15.71
2022-08-11T20:33:49.140Z,16.37
2022-08-11T20:48:48.793Z,15.81
2022-08-11T21:03:54.876Z,15.14
2022-08-11T21:18:49.118Z,15.41
2022-08-11T21:33:48.476Z,15.76
2022-08-11T21:48:48.841Z,15.77
2022-08-11T22:03:49.597Z,15.29
2022-08-11T22:18:48.765Z,17.72
2022-08-11T22:34:02.067Z,16.55
2022-08-11T22:48:49.162Z,16.15
2022-08-11T23:03:48.832Z,16.65
2022-08-11T23:18:48.592Z,16.27
2022-08-11T23:33:48.654Z,15.85
2022-08-11T23:48:48.792Z,16.2
